Stations météo

réclame
Mon MeteoGroup
Sylarna, Suède (2209): Température de l'air & dewpoint: 19.02.2018 06:00:00 - 25.02.2018 06:00:00 (CET)Sylarna, Suède (2209): Vitesse du vent & gusts: 19.02.2018 06:00:00 - 25.02.2018 06:00:00 (CET)Sylarna, Suède (2209): Direction du vent: 19.02.2018 06:00:00 - 25.02.2018 06:00:00 (CET)
Date & Time tt [°C] td [°C] ff [km/h] ff [knt] fx [km/h] fx [knt] dd
25.02.2018 06:00:00 -14,2 -19,0 37 20 49 26 SSE
25.02.2018 05:00:00 -14,8 -19,4 42 23 52 28 SE
25.02.2018 04:00:00 -13,4 -18,2 36 20 53 29 SSE
25.02.2018 03:00:00 -13,2 -18,4 37 20 53 28 SSE
25.02.2018 02:00:00 -13,7 -18,2 33 18 47 25 SSE
25.02.2018 01:00:00 -14,3 -18,6 39 21 48 26 SE
25.02.2018 00:00:00 -14,2 -18,5 39 21 48 26 SE
24.02.2018 23:00:00 -14,0 -18,3 39 21 49 26 SE
24.02.2018 22:00:00 -13,2 -17,3 37 20 49 27 SE
24.02.2018 21:00:00 -13,3 -17,6 41 22 48 26 SE
24.02.2018 20:00:00 -12,2 -16,5 30 16 40 22 SE
24.02.2018 19:00:00 -10,8 -14,7 29 16 35 19 ESE
24.02.2018 18:00:00 -11,0 -13,9 4 2 14 8 N
24.02.2018 17:00:00 -8,8 -11,2 9 5 18 10 N
24.02.2018 16:00:00 -7,9 -10,7 8 4 19 10 N
24.02.2018 15:00:00 -7,2 -11,2 9 5 15 8 NNE
24.02.2018 14:00:00 -7,9 -11,6 5 3 15 8 SSW
24.02.2018 13:00:00 -6,6 -11,2 7 4 11 6 S
24.02.2018 12:00:00 -8,6 -12,4 8 4 10 5 SSW
24.02.2018 11:00:00 -7,1 -11,6 7 4 12 7 SW
24.02.2018 10:00:00 -9,3 -12,9 5 3 12 7 N
24.02.2018 09:00:00 -9,4 -12,7 9 5 11 6 SSW
24.02.2018 08:00:00 -9,6 -12,9 3 2 11 6 SSE
24.02.2018 07:00:00 -9,8 -13,1 4 2 12 7 SSW
24.02.2018 06:00:00 -9,3 -12,4 9 5 13 7 S
24.02.2018 05:00:00 -9,9 -13,3 2 1 12 6 SSE
24.02.2018 04:00:00 -10,9 -14,5 5 3 19 11 SSW
24.02.2018 03:00:00 -9,9 -13,8 13 7 19 11 SSE
24.02.2018 02:00:00 -9,8 -13,9 9 5 26 14 S
24.02.2018 01:00:00 -8,9 -12,9 16 9 27 14 SE
24.02.2018 00:00:00 -9,2 -13,3 8 5 31 17 S
23.02.2018 23:00:00 -9,3 -13,6 21 11 33 18 ESE
23.02.2018 22:00:00 -10,2 -14,3 21 12 32 17 ESE
23.02.2018 21:00:00 -10,6 -14,3 28 15 36 20 ESE
23.02.2018 20:00:00 -9,3 -13,2 21 11 37 20 ESE
23.02.2018 19:00:00 -9,1 -13,4 21 11 31 17 ESE
23.02.2018 18:00:00 -9,0 -13,0 17 9 23 13 ESE
23.02.2018 17:00:00 -8,6 -12,6 16 8 22 12 SE
23.02.2018 16:00:00 -7,7 -11,5 8 5 26 14 SW
23.02.2018 15:00:00 -7,6 -11,8 11 6 21 12 SSE
23.02.2018 14:00:00 -7,7 -11,9 14 8 31 17 SE
23.02.2018 13:00:00 -8,2 -11,8 22 12 28 15 E
23.02.2018 12:00:00 -6,2 -9,7 4 2 8 4 N
23.02.2018 11:00:00 -5,9 -9,3 4 2 12 7 N
23.02.2018 10:00:00 -6,3 -9,8 10 6 18 10 NW
23.02.2018 09:00:00 -6,0 -8,7 8 5 16 8 NNW
23.02.2018 08:00:00 -6,2 -9,2 12 6 15 8 WNW
23.02.2018 07:00:00 -5,7 -8,0 15 8 19 10 NW
23.02.2018 06:00:00 -5,6 -7,4 9 5 15 8 N
23.02.2018 05:00:00 -5,3 -7,3 11 6 15 8 NW
23.02.2018 04:00:00 -5,3 -7,1 11 6 17 9 WNW
23.02.2018 03:00:00 -5,2 -6,9 11 6 20 11 NW
23.02.2018 02:00:00 -5,0 -6,5 11 6 15 8 NW
23.02.2018 01:00:00 -5,0 -6,8 11 6 17 9 WNW
23.02.2018 00:00:00 -5,2 -6,7 5 3 10 5 NNE
22.02.2018 23:00:00 -5,5 -7,0 10 5 18 10 NNW
22.02.2018 22:00:00 -6,2 -8,2 14 8 18 10 WNW
22.02.2018 21:00:00 -7,1 -9,8 10 5 24 13 WNW
22.02.2018 20:00:00 -5,7 -7,7 21 11 24 13 WNW
22.02.2018 19:00:00 -5,1 -6,8 13 7 18 10 NW
22.02.2018 18:00:00 -4,9 -6,6 13 7 23 12 WNW
22.02.2018 17:00:00 -4,7 -6,2 18 10 32 18 WNW
22.02.2018 16:00:00 -4,4 -5,9 22 12 29 16 WNW
22.02.2018 15:00:00 -4,1 -5,9 26 14 33 18 WNW
22.02.2018 14:00:00 -4,2 -5,9 26 14 36 19 WNW
22.02.2018 13:00:00 -3,7 -5,5 18 10 28 15 WNW
22.02.2018 12:00:00 -3,8 -6,7 17 9 27 15 WNW
22.02.2018 11:00:00 -3,9 -5,9 20 11 25 14 WNW
22.02.2018 10:00:00 -4,1 -5,9 16 9 27 15 NW
22.02.2018 09:00:00 -4,1 -5,6 15 8 29 16 NW
22.02.2018 08:00:00 -4,5 -6,2 18 10 28 15 WNW
22.02.2018 07:00:00 -5,1 -6,8 21 11 31 17 WNW
22.02.2018 06:00:00 -5,2 -6,9 23 12 32 18 WNW
22.02.2018 05:00:00 -4,7 -6,2 26 14 32 18 WNW
22.02.2018 04:00:00 -4,0 -6,0 21 11 34 18 WNW
22.02.2018 03:00:00 -4,3 -6,9 20 11 29 16 NW
22.02.2018 02:00:00 -4,5 -6,5 18 10 27 15 NW
22.02.2018 01:00:00 -4,5 -6,8 16 9 25 13 NW
22.02.2018 00:00:00 -4,4 -7,7 21 11 30 16 WNW
21.02.2018 23:00:00 -4,6 -7,4 22 12 31 17 W
21.02.2018 22:00:00 -4,6 -7,0 24 13 35 19 W
21.02.2018 21:00:00 -4,5 -6,9 25 14 36 19 W
21.02.2018 20:00:00 -4,5 -7,1 24 13 39 21 W
21.02.2018 19:00:00 -4,7 -7,0 28 15 41 22 WNW
21.02.2018 18:00:00 -4,4 -7,3 28 15 42 23 WNW
21.02.2018 17:00:00 -4,7 -7,3 29 16 45 24 WNW
21.02.2018 16:00:00 -4,9 -7,5 31 17 51 27 WNW
21.02.2018 15:00:00 -4,7 -8,6 25 14 48 26 W
21.02.2018 14:00:00 -5,1 -9,0 26 14 41 22 W
21.02.2018 13:00:00 -7,2 -10,1 7 4 16 9 N
21.02.2018 12:00:00 -6,7 -10,1 3 2 9 5 S
21.02.2018 11:00:00 -7,4 -10,7 4 2 6 4 S
21.02.2018 10:00:00 -7,9 -11,2 3 2 8 4 NNE
21.02.2018 09:00:00 -8,4 -11,9 3 2 8 5 SSW
21.02.2018 08:00:00 -8,6 -12,6 2 1 10 5 NNE
21.02.2018 07:00:00 -7,8 -12,1 3 2 26 14 NNE
21.02.2018 06:00:00 -6,4 -11,3 11 6 20 11 SSW
21.02.2018 05:00:00 -7,3 -11,3 5 3 11 6 S
21.02.2018 04:00:00 -8,6 -11,3 6 3 10 5 NNE
21.02.2018 03:00:00 -8,3 -11,8 5 3 11 6 N
21.02.2018 02:00:00 -8,4 -11,2 6 3 12 7 NNE
21.02.2018 01:00:00 -7,4 -10,6 5 3 16 8 N
21.02.2018 00:00:00 -7,6 -10,6 8 4 22 12 N
20.02.2018 23:00:00 -7,9 -10,6 9 5 28 15 N
20.02.2018 22:00:00 -8,7 -11,4 9 5 19 11 N
20.02.2018 21:00:00 -8,4 -10,8 9 5 14 8 N
20.02.2018 20:00:00 -8,4 -10,8 8 4 18 10 N
20.02.2018 19:00:00 -8,9 -11,7 9 5 11 6 N
20.02.2018 18:00:00 -7,9 -11,1 4 2 13 7 NNW
20.02.2018 17:00:00 -7,8 -11,6 7 4 15 8 N
20.02.2018 16:00:00 -7,8 -11,6 8 5 17 9 N
20.02.2018 15:00:00 -8,2 -11,8 6 3 25 13 N
20.02.2018 14:00:00 -8,2 -11,4 18 10 29 16 WNW
20.02.2018 13:00:00 -9,3 -15,0 5 3 14 8 NW
20.02.2018 12:00:00 -11,1 -16,6 1 1 12 7 E
20.02.2018 11:00:00 -13,6 -18,1 5 3 14 8 S
20.02.2018 10:00:00 -12,8 -17,3 9 5 15 8 S
20.02.2018 09:00:00 -14,7 -19,0 9 5 14 8 S
20.02.2018 08:00:00 -13,4 -18,0 6 4 20 11 S
20.02.2018 07:00:00 -13,6 -18,4 8 4 19 10 SSE
20.02.2018 06:00:00 -13,4 -18,2 13 7 18 10 SSE
20.02.2018 05:00:00 -12,0 -17,4 7 4 14 8 SSE
20.02.2018 04:00:00 -13,4 -18,4 4 2 14 8 S
20.02.2018 03:00:00 -13,4 -18,2 6 3 11 6 SE
20.02.2018 02:00:00 -12,4 -17,6 11 6 16 9 SSW
20.02.2018 01:00:00 -12,8 -17,8 4 2 24 13 S
20.02.2018 00:00:00 -11,3 -16,0 8 4 30 16 S
19.02.2018 23:00:00 -10,4 -16,1 18 10 34 18 S
19.02.2018 22:00:00 -10,6 -16,1 24 13 36 19 SSE
19.02.2018 21:00:00 -10,0 -15,5 28 15 44 24 SSE
19.02.2018 20:00:00 -9,7 -14,9 36 19 45 25 S
19.02.2018 19:00:00 -9,5 -14,7 33 18 44 24 SSE
19.02.2018 18:00:00 -9,4 -14,2 35 19 46 25 SSE
19.02.2018 17:00:00 -9,2 -13,8 32 18 47 25 SSE
19.02.2018 16:00:00 -9,1 -13,9 35 19 47 26 S
19.02.2018 15:00:00 -9,0 -14,0 36 19 49 26 S
19.02.2018 14:00:00 -8,6 -13,4 37 20 48 26 S
19.02.2018 13:00:00 -9,0 -13,5 38 21 51 28 S
19.02.2018 12:00:00 -8,4 -13,6 36 20 53 29 S
19.02.2018 11:00:00 -8,9 -13,4 36 20 48 26 S
19.02.2018 10:00:00 -9,2 -13,7 37 20 50 27 S
19.02.2018 09:00:00 -10,3 -13,2 30 16 40 21 SE
19.02.2018 08:00:00 -9,7 -12,5 29 16 43 23 SSE
19.02.2018 07:00:00 -10,0 -12,9 32 18 42 23 SE
19.02.2018 06:00:00 -10,9 -14,0 37 20 41 22 ESE

tt = Température de l'air
td = dewpoint
ff = Vitesse du vent
fx = gusts
dd = Direction du vent

stations d'obs. à proximité